createdAt,value
2018-07-27T06:00:29.315Z,983
2018-07-27T06:03:29.304Z,983
2018-07-27T06:06:29.322Z,983
2018-07-27T06:09:29.347Z,983
2018-07-27T06:12:29.501Z,983
2018-07-27T06:15:29.537Z,983
2018-07-27T06:18:29.424Z,984
2018-07-27T06:21:29.465Z,984
2018-07-27T06:24:29.508Z,986
2018-07-27T06:27:29.515Z,987
2018-07-27T06:30:29.681Z,989
2018-07-27T06:33:29.667Z,992
2018-07-27T06:36:29.582Z,995
2018-07-27T06:39:29.727Z,999
2018-07-27T06:42:29.672Z,1002
2018-07-27T06:45:29.702Z,1004
2018-07-27T06:48:29.737Z,1005
2018-07-27T06:51:29.755Z,1006
2018-07-27T06:54:29.870Z,1005
2018-07-27T06:57:29.805Z,1004
2018-07-27T07:00:29.979Z,1003
2018-07-27T07:03:29.924Z,1002
2018-07-27T07:06:29.887Z,1001
2018-07-27T07:09:29.932Z,999
2018-07-27T07:12:29.969Z,998
2018-07-27T07:15:30.000Z,997
2018-07-27T07:18:30.025Z,996
2018-07-27T07:21:30.049Z,995
2018-07-27T07:24:30.088Z,993
2018-07-27T07:27:30.103Z,992
2018-07-27T07:30:30.144Z,990
2018-07-27T07:33:30.280Z,989
2018-07-27T07:39:30.257Z,987
2018-07-27T07:42:30.329Z,986
2018-07-27T07:45:30.430Z,985
2018-07-27T07:48:30.476Z,984
2018-07-27T07:51:30.405Z,984
2018-07-27T07:54:30.434Z,983
2018-07-27T07:57:30.451Z,983
2018-07-27T08:00:30.511Z,983
2018-07-27T08:03:30.590Z,983
2018-07-27T08:06:30.999Z,982
2018-07-27T08:09:30.722Z,982
2018-07-27T08:12:30.645Z,982
2018-07-27T08:15:30.712Z,982
2018-07-27T08:18:30.717Z,982
2018-07-27T08:21:30.749Z,982
2018-07-27T08:24:30.817Z,982
2018-07-27T08:27:30.880Z,982
2018-07-27T08:30:30.899Z,982
2018-07-27T08:33:30.943Z,982
2018-07-27T08:36:31.084Z,981
2018-07-27T08:39:31.076Z,981
2018-07-27T08:42:31.057Z,981
2018-07-27T08:45:31.119Z,981
2018-07-27T08:48:31.137Z,981
2018-07-27T08:51:31.621Z,981
2018-07-27T08:54:31.250Z,981
2018-07-27T08:57:31.714Z,982
2018-07-27T09:00:31.361Z,982
2018-07-27T09:03:31.398Z,982
2018-07-27T09:06:31.706Z,982
2018-07-27T09:09:31.490Z,982
2018-07-27T09:12:31.650Z,982
2018-07-27T09:15:31.590Z,982
2018-07-27T09:18:31.638Z,982
2018-07-27T09:21:31.678Z,982
2018-07-27T09:24:31.898Z,982
2018-07-27T09:27:31.778Z,982
2018-07-27T09:30:31.823Z,982
2018-07-27T09:33:31.868Z,982
2018-07-27T09:36:31.905Z,982
2018-07-27T09:39:31.979Z,982
2018-07-27T09:42:31.995Z,982
2018-07-27T09:45:32.096Z,982
2018-07-27T09:48:32.101Z,982
2018-07-27T09:51:32.194Z,983
2018-07-27T09:54:32.321Z,983
2018-07-27T09:57:32.517Z,983
2018-07-27T10:00:32.333Z,983
2018-07-27T10:06:32.531Z,984
2018-07-27T10:09:32.456Z,984
2018-07-27T10:12:32.524Z,985
2018-07-27T10:15:32.580Z,986
2018-07-27T10:18:32.659Z,986
2018-07-27T10:21:32.689Z,987
2018-07-27T10:24:32.708Z,987
2018-07-27T10:27:32.773Z,987
2018-07-27T10:30:32.833Z,988
2018-07-27T10:33:32.976Z,988
2018-07-27T10:36:32.936Z,988
2018-07-27T10:39:33.000Z,989
2018-07-27T10:42:33.154Z,989
2018-07-27T10:45:33.128Z,989
2018-07-27T10:48:33.136Z,989
2018-07-27T10:51:33.320Z,989
2018-07-27T10:54:33.260Z,987
2018-07-27T10:57:33.312Z,985
2018-07-27T11:00:33.670Z,983
2018-07-27T11:03:33.374Z,984
2018-07-27T11:06:33.417Z,984
2018-07-27T11:09:33.465Z,983
2018-07-27T11:12:33.509Z,982
2018-07-27T11:15:33.625Z,982
2018-07-27T11:18:33.545Z,983
2018-07-27T11:21:33.585Z,985
2018-07-27T11:24:33.645Z,986
2018-07-27T11:27:33.753Z,987
2018-07-27T11:30:33.768Z,986
2018-07-27T11:33:34.216Z,986
2018-07-27T11:36:33.842Z,986
2018-07-27T11:39:33.916Z,986
2018-07-27T11:42:34.120Z,986
2018-07-27T11:45:34.059Z,986
2018-07-27T11:48:34.110Z,986
2018-07-27T11:51:34.164Z,985
2018-07-27T11:54:34.217Z,984
2018-07-27T11:57:34.280Z,984
2018-07-27T12:00:34.353Z,982
2018-07-27T12:03:34.448Z,982
2018-07-27T12:06:34.371Z,981
2018-07-27T12:09:34.451Z,981
2018-07-27T12:12:34.469Z,981
2018-07-27T12:15:34.528Z,981
2018-07-27T14:03:36.520Z,980
2018-07-27T14:06:36.357Z,980
2018-07-27T14:09:36.297Z,980
2018-07-27T14:12:36.406Z,980
2018-07-27T14:15:36.398Z,980
2018-07-27T14:18:36.452Z,980
2018-07-27T14:21:36.645Z,979
2018-07-27T14:24:36.523Z,980
2018-07-27T14:27:37.020Z,980
2018-07-27T14:30:36.622Z,980
2018-07-27T14:33:36.696Z,980
2018-07-27T14:36:36.722Z,980
2018-07-27T14:39:36.758Z,980
2018-07-27T14:42:37.064Z,980
2018-07-27T14:45:36.835Z,980
2018-07-27T14:48:36.904Z,980
2018-07-27T14:51:37.036Z,980
2018-07-27T14:54:36.951Z,980
2018-07-27T14:57:37.019Z,979
2018-07-27T15:00:37.145Z,979
2018-07-27T15:03:37.520Z,979
2018-07-27T15:06:37.133Z,979
2018-07-27T15:09:37.177Z,979
2018-07-27T15:12:37.338Z,979
2018-07-27T15:15:37.366Z,978
2018-07-27T15:18:37.309Z,978
2018-07-27T15:21:37.348Z,978
2018-07-27T15:24:37.365Z,978
2018-07-27T15:27:37.556Z,978
2018-07-27T15:30:37.475Z,978
2018-07-27T15:33:37.504Z,978
2018-07-27T15:36:37.616Z,978
2018-07-27T15:39:37.598Z,978
2018-07-27T15:42:37.746Z,978
2018-07-27T15:45:37.787Z,978
2018-07-27T15:48:37.750Z,979
2018-07-27T15:51:37.748Z,979
2018-07-27T15:54:37.887Z,979
2018-07-27T15:57:38.251Z,979
2018-07-27T16:00:37.893Z,979
2018-07-27T16:03:38.052Z,979
2018-07-27T16:06:37.973Z,979
2018-07-27T16:09:38.004Z,979
2018-07-27T16:15:38.100Z,979
2018-07-27T16:18:38.129Z,979
2018-07-27T16:21:38.144Z,979
2018-07-27T16:24:38.178Z,979
2018-07-27T16:27:38.322Z,978
2018-07-27T16:30:38.385Z,978
2018-07-27T16:33:38.320Z,978
2018-07-27T16:36:38.313Z,978
2018-07-27T16:39:38.367Z,978
2018-07-27T16:42:38.389Z,978
2018-07-27T16:45:38.417Z,978
2018-07-27T16:48:38.484Z,978
2018-07-27T16:54:38.520Z,978
2018-07-27T16:57:38.542Z,978
2018-07-27T17:00:38.613Z,978
2018-07-27T17:03:38.632Z,978
2018-07-27T17:06:38.607Z,978
2018-07-27T17:09:38.920Z,978
2018-07-27T17:12:38.688Z,978
2018-07-27T17:15:38.705Z,978
2018-07-27T17:18:38.848Z,978
2018-07-27T17:21:38.751Z,978
2018-07-27T17:24:38.808Z,978
2018-07-27T17:27:38.829Z,978
2018-07-27T17:30:38.880Z,978
2018-07-27T17:33:38.906Z,978
2018-07-27T17:36:38.915Z,978
2018-07-27T17:39:38.948Z,978
2018-07-27T17:42:39.043Z,978
2018-07-27T17:45:39.013Z,978
2018-07-27T17:51:39.043Z,978
2018-07-27T17:54:39.139Z,978
2018-07-27T17:57:39.177Z,978
2018-07-27T18:00:39.085Z,978
2018-07-27T18:06:39.164Z,978
